Time;durP1;ratioP1;P1;durP2;ratioP2;P2;SDS_P1;SDS_P2;PMS_P1;PMS_P2;Temp;Humidity;BMP_temperature;BMP_pressure;BME280_temperature;BME280_humidity;BME280_pressure;Samples;Min_cycle;Max_cycle;Signal;HPM_P1;HPM_P2
2021/10/29 00:02:19;;;;;;;1.77;1.30;;;8.10;99.90;;;;;;4445307;32;20076;-69
2021/10/29 00:04:45;;;;;;;2.67;1.30;;;8.10;99.90;;;;;;4445052;32;20061;-69
2021/10/29 00:07:11;;;;;;;3.28;1.48;;;8.10;99.90;;;;;;4444214;32;20136;-69
2021/10/29 00:09:37;;;;;;;1.87;1.20;;;8.10;99.90;;;;;;4444046;32;20097;-69
2021/10/29 00:12:03;;;;;;;0.70;0.70;;;8.20;99.90;;;;;;4443983;32;20061;-69
2021/10/29 00:14:32;;;;;;;4.28;1.73;;;8.20;99.90;;;;;;4445293;32;20068;-69
2021/10/29 00:16:58;;;;;;;0.77;0.77;;;8.00;99.90;;;;;;4444094;32;20126;-69
2021/10/29 00:19:24;;;;;;;2.55;1.30;;;8.00;99.90;;;;;;4444332;32;20506;-69
2021/10/29 00:21:49;;;;;;;4.35;1.48;;;8.00;99.90;;;;;;4443643;32;20076;-69
2021/10/29 00:24:15;;;;;;;0.93;0.93;;;8.00;99.90;;;;;;4443892;32;20123;-69
2021/10/29 00:26:41;;;;;;;2.12;1.58;;;8.00;99.90;;;;;;4443503;32;20065;-69
2021/10/29 00:29:07;;;;;;;1.73;1.50;;;8.00;99.90;;;;;;4441797;32;20065;-69
2021/10/29 00:31:32;;;;;;;2.42;1.60;;;8.00;99.90;;;;;;4443443;32;20085;-69
2021/10/29 00:33:58;;;;;;;2.20;1.40;;;8.00;99.90;;;;;;4443771;32;20124;-69
2021/10/29 00:36:23;;;;;;;0.70;0.70;;;7.90;99.90;;;;;;4443014;32;20080;-69
2021/10/29 00:38:48;;;;;;;1.77;1.05;;;7.90;99.90;;;;;;4442455;32;20073;-69
2021/10/29 00:41:14;;;;;;;2.97;2.00;;;8.00;99.90;;;;;;4444109;32;20065;-69
2021/10/29 00:43:39;;;;;;;3.42;1.25;;;8.00;99.90;;;;;;4443710;32;20080;-69
2021/10/29 00:46:05;;;;;;;3.60;1.48;;;7.90;99.90;;;;;;4444045;32;20499;-69
2021/10/29 00:48:30;;;;;;;2.58;1.10;;;7.80;99.90;;;;;;4444911;32;20076;-69
2021/10/29 00:50:56;;;;;;;2.10;1.52;;;7.90;99.90;;;;;;4444291;32;20425;-69
2021/10/29 00:53:23;;;;;;;2.92;1.50;;;8.10;99.90;;;;;;4443397;32;20061;-69
2021/10/29 00:55:49;;;;;;;2.50;1.77;;;8.10;99.90;;;;;;4443522;32;20072;-69
2021/10/29 00:58:15;;;;;;;1.60;1.37;;;8.10;99.90;;;;;;4444714;32;20213;-69
2021/10/29 01:00:40;;;;;;;3.37;2.22;;;8.10;99.90;;;;;;4444989;32;20090;-69
2021/10/29 01:03:06;;;;;;;0.75;0.75;;;8.10;99.90;;;;;;4443905;32;20076;-69
2021/10/29 01:05:32;;;;;;;3.05;1.52;;;8.00;99.90;;;;;;4444559;32;20073;-69
2021/10/29 01:07:58;;;;;;;1.62;1.25;;;8.00;99.90;;;;;;4444230;32;20069;-69
2021/10/29 01:10:29;;;;;;;3.90;1.70;;;7.90;99.90;;;;;;4443368;32;20065;-69
2021/10/29 01:12:54;;;;;;;3.75;1.12;;;7.90;99.90;;;;;;4443202;32;20064;-69
2021/10/29 01:15:20;;;;;;;5.15;1.75;;;7.90;99.90;;;;;;4443593;32;20053;-69
2021/10/29 01:17:45;;;;;;;8.82;2.17;;;7.90;99.90;;;;;;4444138;32;20073;-69
2021/10/29 01:20:11;;;;;;;1.45;1.15;;;7.90;99.90;;;;;;4443427;32;20081;-69
2021/10/29 01:22:37;;;;;;;1.70;1.27;;;7.90;99.90;;;;;;4443129;32;20081;-69
2021/10/29 01:25:02;;;;;;;2.72;1.83;;;7.80;99.90;;;;;;4440340;32;20089;-69
2021/10/29 01:27:28;;;;;;;0.95;0.90;;;7.80;99.90;;;;;;4443615;32;20061;-69
2021/10/29 01:29:53;;;;;;;2.37;1.83;;;7.70;99.90;;;;;;4444006;32;20072;-69
2021/10/29 01:32:21;;;;;;;1.10;1.05;;;7.70;99.90;;;;;;4443330;32;20551;-69
2021/10/29 01:34:47;;;;;;;2.42;1.37;;;7.60;99.90;;;;;;4428927;32;20518;-69
2021/10/29 01:37:14;;;;;;;3.33;1.85;;;7.60;99.90;;;;;;4435051;32;20081;-69
2021/10/29 01:39:40;;;;;;;3.67;2.12;;;7.50;99.90;;;;;;4446832;32;20514;-69
2021/10/29 01:42:06;;;;;;;2.70;1.62;;;7.50;99.90;;;;;;4446684;32;20065;-69
2021/10/29 01:44:32;;;;;;;10.75;3.40;;;7.50;99.90;;;;;;4445523;32;20118;-69
2021/10/29 01:46:58;;;;;;;0.95;0.95;;;7.40;99.90;;;;;;4446175;32;20463;-69
2021/10/29 01:49:23;;;;;;;2.65;1.27;;;7.40;99.90;;;;;;4445885;32;20078;-69
2021/10/29 01:51:49;;;;;;;1.65;1.55;;;7.60;99.90;;;;;;4447052;32;20314;-69
2021/10/29 01:54:15;;;;;;;2.10;1.33;;;7.60;99.90;;;;;;4445061;32;20111;-69
2021/10/29 01:56:40;;;;;;;2.17;1.58;;;7.60;99.90;;;;;;4444332;32;20502;-69
2021/10/29 01:59:06;;;;;;;1.45;1.35;;;7.60;99.90;;;;;;4445586;32;20493;-69
2021/10/29 02:01:32;;;;;;;1.67;1.40;;;7.50;99.90;;;;;;4445518;32;20584;-69
2021/10/29 02:03:57;;;;;;;2.95;1.77;;;7.60;99.90;;;;;;4445386;32;20060;-69
2021/10/29 02:06:23;;;;;;;4.82;1.80;;;7.40;99.90;;;;;;4445698;32;20175;-69
2021/10/29 02:08:49;;;;;;;1.52;1.00;;;7.30;99.90;;;;;;4446950;32;20073;-69
2021/10/29 02:11:14;;;;;;;6.50;2.53;;;7.30;99.90;;;;;;4445657;32;20066;-69
2021/10/29 02:13:40;;;;;;;0.90;0.90;;;7.30;99.90;;;;;;4446529;32;20068;-69
2021/10/29 02:16:06;;;;;;;1.92;1.45;;;7.30;99.90;;;;;;4446297;32;20510;-69
2021/10/29 02:18:32;;;;;;;1.70;1.45;;;7.30;99.90;;;;;;4445025;32;20065;-69
2021/10/29 02:20:57;;;;;;;3.03;1.50;;;7.30;99.90;;;;;;4445042;32;20138;-69
2021/10/29 02:23:23;;;;;;;5.30;1.48;;;7.30;99.90;;;;;;4445111;32;20502;-69
2021/10/29 02:25:49;;;;;;;4.75;2.05;;;7.20;99.90;;;;;;4444940;32;20277;-69
2021/10/29 02:28:16;;;;;;;2.72;1.83;;;7.10;99.90;;;;;;4444565;32;20061;-69
2021/10/29 02:30:42;;;;;;;3.22;1.62;;;7.10;99.90;;;;;;4445537;32;20507;-73
2021/10/29 02:33:08;;;;;;;2.05;1.73;;;7.20;99.90;;;;;;4441019;32;20570;-70
2021/10/29 02:35:34;;;;;;;1.90;1.17;;;7.20;99.90;;;;;;4429494;32;20062;-69
2021/10/29 02:37:59;;;;;;;6.03;1.20;;;7.10;99.90;;;;;;4438657;32;20073;-69
2021/10/29 02:40:25;;;;;;;1.40;1.30;;;6.90;99.90;;;;;;4445901;32;20070;-69
2021/10/29 02:42:50;;;;;;;4.15;1.83;;;6.90;99.90;;;;;;4445050;32;20088;-69
2021/10/29 02:45:16;;;;;;;8.30;1.90;;;6.90;99.90;;;;;;4445696;32;20068;-69
2021/10/29 02:47:46;;;;;;;2.22;1.37;;;6.80;99.90;;;;;;4443926;32;20434;-69
2021/10/29 02:50:12;;;;;;;1.92;1.15;;;6.80;99.90;;;;;;4444309;32;20073;-70
2021/10/29 02:52:38;;;;;;;2.25;1.05;;;6.90;99.90;;;;;;4445405;32;20181;-70
2021/10/29 02:55:04;;;;;;;2.17;1.23;;;6.90;99.90;;;;;;4444542;32;20513;-69
2021/10/29 02:57:29;;;;;;;5.68;1.80;;;6.90;99.90;;;;;;4445234;32;20115;-69
2021/10/29 02:59:55;;;;;;;1.77;1.23;;;7.00;99.90;;;;;;4445888;32;20134;-69
2021/10/29 03:02:20;;;;;;;2.08;1.02;;;6.90;99.90;;;;;;4445370;32;20069;-69
2021/10/29 03:04:46;;;;;;;1.52;0.98;;;6.90;99.90;;;;;;4446320;32;20065;-70
2021/10/29 03:07:11;;;;;;;1.05;1.00;;;6.80;99.90;;;;;;4444847;32;20066;-69
2021/10/29 03:09:37;;;;;;;2.92;2.15;;;6.90;99.90;;;;;;4444899;32;20491;-69
2021/10/29 03:12:02;;;;;;;5.43;2.15;;;6.90;99.90;;;;;;4445082;32;20061;-70
2021/10/29 03:14:28;;;;;;;3.55;1.80;;;7.00;99.90;;;;;;4444869;32;20061;-69
2021/10/29 03:16:53;;;;;;;4.20;1.85;;;6.90;99.90;;;;;;4445078;32;20452;-69
2021/10/29 03:19:19;;;;;;;2.30;1.75;;;6.90;99.90;;;;;;4444325;32;20120;-69
2021/10/29 03:21:45;;;;;;;0.50;0.50;;;7.00;99.90;;;;;;4444545;32;20073;-70
2021/10/29 03:24:10;;;;;;;2.35;0.95;;;6.90;99.90;;;;;;4441854;32;20581;-69
2021/10/29 03:26:36;;;;;;;0.77;0.77;;;6.80;99.90;;;;;;4445236;32;20122;-69
2021/10/29 03:29:01;;;;;;;1.40;1.30;;;6.80;99.90;;;;;;4444537;32;20068;-69
2021/10/29 03:31:27;;;;;;;5.80;1.80;;;6.80;99.90;;;;;;4444619;32;20090;-69
2021/10/29 03:33:52;;;;;;;1.87;1.67;;;6.70;99.90;;;;;;4444862;32;20412;-69
2021/10/29 03:36:18;;;;;;;1.48;1.27;;;6.60;99.90;;;;;;4444406;32;20128;-69
2021/10/29 03:38:49;;;;;;;2.08;1.30;;;6.60;99.90;;;;;;4444413;32;20123;-69
2021/10/29 03:41:19;;;;;;;3.10;1.75;;;6.60;99.90;;;;;;4445385;32;20068;-69
2021/10/29 03:43:54;;;;;;;5.20;1.90;;;6.60;99.90;;;;;;4444034;32;20462;-69
2021/10/29 03:46:22;;;;;;;3.28;1.27;;;6.60;99.90;;;;;;4444735;32;20128;-69
2021/10/29 03:49:14;;;;;;;3.80;1.10;;;6.50;99.90;;;;;;4444574;32;20130;-69
2021/10/29 03:51:38;;;;;;;5.85;1.35;;;6.50;99.90;;;;;;4432166;32;20069;-69
2021/10/29 03:54:11;;;;;;;10.48;2.72;;;6.40;99.90;;;;;;4444418;32;20077;-69
2021/10/29 03:56:46;;;;;;;2.17;1.77;;;6.40;99.90;;;;;;4445034;32;20069;-69
2021/10/29 03:59:12;;;;;;;3.53;1.85;;;6.30;99.90;;;;;;4444102;32;20080;-69
2021/10/29 04:01:39;;;;;;;1.50;1.25;;;6.30;99.90;;;;;;4444415;32;20068;-69
2021/10/29 04:04:04;;;;;;;2.17;1.55;;;6.30;99.90;;;;;;4444260;32;20077;-69
2021/10/29 04:06:30;;;;;;;7.68;2.15;;;6.30;99.90;;;;;;4444428;32;20077;-69
2021/10/29 04:08:55;;;;;;;1.80;1.17;;;6.30;99.90;;;;;;4444552;32;20104;-69
2021/10/29 04:11:23;;;;;;;1.60;1.00;;;6.30;99.90;;;;;;4443711;32;20132;-69
2021/10/29 04:13:49;;;;;;;0.80;0.80;;;6.30;99.90;;;;;;4444355;32;20062;-69
2021/10/29 04:16:15;;;;;;;2.35;1.23;;;6.20;99.90;;;;;;4443962;32;20060;-69
2021/10/29 04:18:41;;;;;;;3.03;1.17;;;6.20;99.90;;;;;;4444101;32;20112;-69
2021/10/29 04:21:07;;;;;;;1.95;0.73;;;6.20;99.90;;;;;;4438480;32;20056;-69
2021/10/29 04:23:35;;;;;;;3.30;1.05;;;6.10;99.90;;;;;;4437719;32;20506;-69
2021/10/29 04:26:02;;;;;;;0.88;0.88;;;6.20;99.90;;;;;;4442401;32;20233;-69
2021/10/29 04:28:28;;;;;;;2.33;1.52;;;6.20;99.90;;;;;;4440216;32;20089;-69
2021/10/29 04:30:55;;;;;;;1.50;1.27;;;6.20;99.90;;;;;;4440170;32;103706;-69
2021/10/29 04:33:20;;;;;;;0.50;0.50;;;6.30;99.90;;;;;;4437109;32;20128;-69
2021/10/29 04:35:52;;;;;;;3.10;1.42;;;6.20;99.90;;;;;;4429365;32;20546;-69
2021/10/29 04:38:19;;;;;;;3.67;1.30;;;6.10;99.90;;;;;;4438633;32;20085;-69
2021/10/29 04:40:44;;;;;;;9.60;2.22;;;6.20;99.90;;;;;;4441631;32;20068;-69
2021/10/29 04:43:11;;;;;;;5.45;1.45;;;6.10;99.90;;;;;;4443657;32;20136;-69
2021/10/29 04:45:37;;;;;;;4.78;1.33;;;6.20;99.90;;;;;;4443903;32;20139;-69
2021/10/29 04:48:04;;;;;;;0.80;0.80;;;6.20;99.90;;;;;;4432888;32;20062;-70
2021/10/29 04:50:30;;;;;;;11.23;1.12;;;6.20;99.90;;;;;;4445281;32;20061;-69
2021/10/29 04:52:56;;;;;;;6.90;2.37;;;6.30;99.90;;;;;;4444351;32;20416;-69
2021/10/29 04:55:22;;;;;;;5.07;2.25;;;6.20;99.90;;;;;;4444862;32;20099;-69
2021/10/29 04:57:47;;;;;;;6.37;2.30;;;6.20;99.90;;;;;;4443999;32;20132;-69
2021/10/29 05:00:13;;;;;;;2.30;1.55;;;6.20;99.90;;;;;;4440001;32;20072;-69
2021/10/29 05:02:39;;;;;;;1.37;1.23;;;6.20;99.90;;;;;;4429757;32;20061;-69
2021/10/29 05:05:07;;;;;;;1.65;1.27;;;6.20;99.90;;;;;;4435729;32;20085;-69
2021/10/29 05:07:34;;;;;;;4.53;1.37;;;6.20;99.90;;;;;;4438866;32;20065;-69
2021/10/29 05:10:00;;;;;;;5.22;1.00;;;6.30;99.90;;;;;;4441128;32;20056;-69
2021/10/29 05:12:26;;;;;;;4.28;0.93;;;6.30;99.90;;;;;;4436959;32;20074;-69
2021/10/29 05:14:52;;;;;;;9.13;2.35;;;6.30;99.90;;;;;;4442206;32;20073;-69
2021/10/29 05:17:18;;;;;;;1.55;1.30;;;6.20;99.90;;;;;;4422691;32;20070;-69
2021/10/29 05:19:44;;;;;;;5.00;2.40;;;6.20;99.90;;;;;;4439312;32;20076;-69
2021/10/29 05:22:09;;;;;;;1.50;0.95;;;6.20;99.90;;;;;;4439969;32;20061;-69
2021/10/29 05:24:35;;;;;;;6.40;2.65;;;6.20;99.90;;;;;;4433614;32;20085;-69
2021/10/29 05:27:01;;;;;;;1.45;1.15;;;6.20;99.90;;;;;;4423954;32;20094;-69
2021/10/29 05:29:26;;;;;;;1.12;1.02;;;6.20;99.90;;;;;;4429869;32;20093;-69
2021/10/29 05:31:52;;;;;;;3.17;1.15;;;6.30;99.90;;;;;;4413802;32;20455;-69
2021/10/29 05:34:19;;;;;;;3.20;1.83;;;6.50;99.90;;;;;;4438229;32;20100;-69
2021/10/29 05:36:48;;;;;;;2.45;1.27;;;6.50;99.90;;;;;;4438940;32;20077;-70
2021/10/29 05:39:15;;;;;;;2.28;1.70;;;6.50;99.90;;;;;;4430015;32;20060;-69
2021/10/29 05:41:47;;;;;;;1.95;1.05;;;6.40;99.90;;;;;;4437472;32;20105;-70
2021/10/29 05:44:14;;;;;;;5.78;1.73;;;6.30;99.90;;;;;;4431357;32;20642;-70
2021/10/29 05:46:42;;;;;;;1.15;1.05;;;6.20;99.90;;;;;;4431130;32;20156;-69
2021/10/29 05:49:10;;;;;;;1.08;0.90;;;6.40;99.90;;;;;;4436500;32;20073;-70
2021/10/29 05:51:43;;;;;;;3.58;1.50;;;6.40;99.90;;;;;;4427272;32;20374;-71
2021/10/29 05:54:36;;;;;;;0.60;0.60;;;6.40;99.90;;;;;;4424995;32;20181;-72
2021/10/29 05:56:56;;;;;;;2.75;1.12;;;6.40;99.90;;;;;;4422123;32;20441;-70
2021/10/29 05:59:21;;;;;;;0.77;0.77;;;6.30;99.90;;;;;;4428986;32;20072;-70
2021/10/29 06:01:47;;;;;;;1.83;1.08;;;6.30;99.90;;;;;;4429321;32;20065;-70
2021/10/29 06:04:13;;;;;;;1.33;1.02;;;6.30;99.90;;;;;;4431789;32;20065;-70
2021/10/29 06:06:38;;;;;;;2.70;2.00;;;6.40;99.90;;;;;;4430493;32;20959;-70
2021/10/29 06:09:04;;;;;;;3.40;2.25;;;6.30;99.90;;;;;;4436228;32;20117;-70
2021/10/29 06:11:30;;;;;;;11.10;2.60;;;6.40;99.90;;;;;;4430286;32;20495;-70
2021/10/29 06:13:56;;;;;;;7.05;2.30;;;6.30;99.90;;;;;;4429374;32;20108;-70
2021/10/29 06:16:22;;;;;;;0.60;0.60;;;6.30;99.90;;;;;;4428345;32;20077;-71
2021/10/29 06:18:48;;;;;;;0.60;0.60;;;6.30;99.90;;;;;;4431340;32;20068;-70
2021/10/29 06:21:18;;;;;;;1.42;0.88;;;6.30;99.90;;;;;;4427098;32;20156;-70
2021/10/29 06:26:24;;;;;;;1.73;1.45;;;6.40;99.90;;;;;;4434501;32;20566;-70
2021/10/29 06:28:50;;;;;;;2.42;1.27;;;6.40;99.90;;;;;;4427738;32;20538;-70
2021/10/29 06:31:17;;;;;;;14.23;1.80;;;6.40;99.90;;;;;;4429873;32;20089;-70
2021/10/29 06:33:43;;;;;;;1.08;1.00;;;6.40;99.90;;;;;;4431269;32;20112;-70
2021/10/29 06:36:09;;;;;;;1.65;1.23;;;6.40;99.90;;;;;;4429793;32;20084;-70
2021/10/29 06:38:39;;;;;;;2.80;1.65;;;6.40;99.90;;;;;;4435536;32;20089;-70
2021/10/29 06:41:05;;;;;;;1.93;1.50;;;6.40;99.90;;;;;;4432469;32;20156;-70
2021/10/29 06:43:38;;;;;;;1.30;1.15;;;6.40;99.90;;;;;;4428384;32;20630;-70
2021/10/29 06:59:26;;;;;;;2.55;1.48;;;6.30;99.90;;;;;;4427410;32;20061;-70
2021/10/29 07:13:09;;;;;;;10.88;1.30;;;6.40;99.90;;;;;;4439007;32;20140;-70
2021/10/29 07:40:05;;;;;;;0.80;0.80;;;7.00;99.90;;;;;;4420480;32;20128;-70
2021/10/29 07:42:39;;;;;;;4.07;1.58;;;7.00;99.90;;;;;;4432010;32;20066;-69
2021/10/29 07:45:07;;;;;;;1.05;0.95;;;7.00;99.90;;;;;;4429270;32;20135;-69
2021/10/29 07:47:34;;;;;;;0.68;0.68;;;7.10;99.90;;;;;;4423181;32;20057;-68
2021/10/29 07:50:01;;;;;;;0.95;0.82;;;7.20;99.90;;;;;;4430487;32;20529;-69
2021/10/29 07:52:27;;;;;;;2.00;1.35;;;7.20;99.90;;;;;;4423410;32;20280;-69
2021/10/29 07:54:54;;;;;;;1.25;1.15;;;7.40;99.90;;;;;;4417561;32;20165;-69
2021/10/29 07:57:20;;;;;;;4.68;1.45;;;7.50;99.90;;;;;;4420876;32;20074;-70
2021/10/29 07:59:49;;;;;;;2.50;1.23;;;7.60;99.90;;;;;;4427314;32;20163;-70
2021/10/29 08:02:16;;;;;;;2.08;1.17;;;7.60;99.90;;;;;;4424120;32;20065;-70
2021/10/29 08:04:42;;;;;;;1.20;1.10;;;7.60;99.90;;;;;;4426256;32;20122;-69
2021/10/29 08:07:08;;;;;;;0.82;0.80;;;7.70;99.90;;;;;;4427580;32;20676;-70
2021/10/29 08:09:34;;;;;;;1.50;1.23;;;7.80;99.90;;;;;;4426346;32;20092;-70
2021/10/29 08:12:00;;;;;;;1.10;1.00;;;7.90;99.90;;;;;;4420708;32;20132;-70
2021/10/29 08:14:26;;;;;;;0.50;0.50;;;8.10;99.90;;;;;;4429906;32;20160;-70
2021/10/29 08:16:52;;;;;;;2.40;0.90;;;8.20;99.90;;;;;;4430224;32;20521;-69
2021/10/29 08:19:24;;;;;;;5.80;0.90;;;8.20;99.90;;;;;;4422807;32;20119;-70
2021/10/29 08:21:49;;;;;;;2.40;1.27;;;8.30;99.90;;;;;;4416370;32;20114;-70
2021/10/29 08:24:15;;;;;;;3.28;1.25;;;8.40;99.90;;;;;;4424234;32;20400;-70
2021/10/29 08:26:40;;;;;;;1.17;0.93;;;8.50;99.90;;;;;;4426386;32;20093;-70
2021/10/29 08:29:06;;;;;;;2.42;1.05;;;8.60;99.90;;;;;;4424939;32;20097;-70
2021/10/29 08:31:31;;;;;;;1.10;1.00;;;8.60;99.90;;;;;;4427908;32;20081;-70
2021/10/29 08:34:00;;;;;;;6.78;1.77;;;8.60;99.90;;;;;;4424148;32;20093;-70
2021/10/29 08:36:28;;;;;;;1.50;0.93;;;8.70;99.90;;;;;;4424694;32;20093;-69
2021/10/29 08:38:55;;;;;;;4.57;1.20;;;8.70;99.90;;;;;;4426554;32;20889;-69
2021/10/29 08:41:22;;;;;;;5.15;2.05;;;8.80;99.90;;;;;;4431301;32;20076;-70
2021/10/29 08:43:48;;;;;;;2.20;1.58;;;8.90;99.90;;;;;;4427136;32;20081;-70
2021/10/29 08:46:14;;;;;;;4.85;0.93;;;9.00;99.90;;;;;;4424522;32;20148;-68
2021/10/29 08:48:40;;;;;;;2.03;1.20;;;9.20;99.90;;;;;;4426894;32;20081;-69
2021/10/29 08:51:06;;;;;;;0.82;0.82;;;9.30;99.90;;;;;;4427984;32;20190;-69
2021/10/29 08:53:32;;;;;;;1.17;1.10;;;9.30;99.90;;;;;;4422590;32;20089;-69
2021/10/29 08:56:02;;;;;;;0.90;0.88;;;9.40;99.90;;;;;;4427040;32;20069;-71
2021/10/29 08:58:30;;;;;;;0.93;0.85;;;9.70;99.90;;;;;;4421604;32;20081;-70
2021/10/29 09:01:00;;;;;;;0.88;0.73;;;9.90;99.90;;;;;;4427594;32;20080;-70
2021/10/29 09:03:29;;;;;;;3.35;0.98;;;10.20;99.90;;;;;;4428471;32;20610;-69
2021/10/29 09:06:16;;;;;;;0.65;0.65;;;10.10;99.90;;;;;;4426549;32;20085;-69
2021/10/29 09:08:52;;;;;;;2.55;0.85;;;10.20;99.90;;;;;;4423964;32;20113;-69
2021/10/29 09:16:14;;;;;;;0.68;0.68;;;10.40;99.90;;;;;;4423164;32;20159;-69
2021/10/29 09:31:44;;;;;;;1.48;1.37;;;11.50;99.90;;;;;;4407316;32;20301;-70
2021/10/29 09:34:05;;;;;;;1.50;1.10;;;11.60;99.90;;;;;;4409388;32;20101;-70
2021/10/29 09:36:34;;;;;;;2.92;0.80;;;11.60;99.90;;;;;;4421748;32;20530;-70
2021/10/29 09:39:08;;;;;;;3.10;1.67;;;11.60;99.90;;;;;;4427207;32;20122;-69
2021/10/29 09:41:36;;;;;;;0.95;0.88;;;11.60;99.90;;;;;;4426499;32;20057;-70
2021/10/29 09:44:05;;;;;;;0.98;0.88;;;11.60;99.90;;;;;;4429614;32;20163;-70
2021/10/29 09:46:37;;;;;;;1.35;0.88;;;11.70;99.90;;;;;;4430246;32;20077;-70
2021/10/29 09:49:11;;;;;;;2.17;1.35;;;12.00;99.90;;;;;;4429634;32;20146;-69
2021/10/29 09:51:50;;;;;;;0.50;0.50;;;12.00;99.90;;;;;;4429360;32;20102;-69
2021/10/29 09:54:19;;;;;;;11.90;1.85;;;11.90;99.90;;;;;;4428199;32;20069;-70
2021/10/29 09:56:52;;;;;;;1.60;0.93;;;12.10;99.90;;;;;;4431780;32;20440;-70
2021/10/29 09:59:18;;;;;;;12.60;1.95;;;12.30;99.90;;;;;;4424481;32;20093;-71
2021/10/29 10:01:44;;;;;;;0.70;0.70;;;12.30;99.90;;;;;;4434334;32;20522;-74
2021/10/29 10:04:10;;;;;;;1.00;0.93;;;12.20;99.90;;;;;;4432408;32;20400;-70
2021/10/29 10:06:40;;;;;;;1.27;0.82;;;12.20;99.90;;;;;;4429638;32;20178;-69
2021/10/29 10:09:08;;;;;;;3.10;1.35;;;12.20;99.90;;;;;;4427445;32;20144;-69
2021/10/29 10:11:35;;;;;;;0.75;0.75;;;12.50;99.90;;;;;;4427550;32;20124;-70
2021/10/29 10:14:04;;;;;;;4.72;1.58;;;12.60;99.90;;;;;;4436820;32;20077;-69
2021/10/29 10:16:31;;;;;;;3.85;1.12;;;12.50;99.90;;;;;;4427552;32;20632;-70
2021/10/29 10:18:57;;;;;;;1.73;1.15;;;12.70;99.90;;;;;;4427733;32;20077;-70
2021/10/29 10:21:25;;;;;;;1.20;1.10;;;12.70;99.90;;;;;;4433404;32;20476;-70
2021/10/29 10:23:53;;;;;;;1.35;1.10;;;12.70;99.90;;;;;;4434749;32;20097;-69
2021/10/29 10:26:29;;;;;;;4.45;0.73;;;12.60;99.90;;;;;;4432006;32;20076;-69
2021/10/29 10:29:13;;;;;;;1.17;1.02;;;12.80;99.90;;;;;;4430361;32;20104;-69
2021/10/29 10:40:18;;;;;;;1.37;1.08;;;12.90;99.90;;;;;;4434927;32;20073;-70
2021/10/29 10:43:57;;;;;;;0.77;0.77;;;12.90;99.90;;;;;;4422611;32;20101;-70
2021/10/29 10:46:09;;;;;;;1.05;0.98;;;13.00;99.90;;;;;;4419341;32;20069;-70
2021/10/29 10:48:40;;;;;;;1.30;1.20;;;13.20;99.90;;;;;;4428791;32;20097;-69
2021/10/29 10:51:36;;;;;;;5.00;1.52;;;13.40;99.90;;;;;;4428254;32;20061;-70
2021/10/29 10:54:06;;;;;;;1.17;0.93;;;13.40;99.90;;;;;;4408036;32;20174;-69
2021/10/29 10:59:48;;;;;;;0.75;0.75;;;13.40;99.90;;;;;;4420299;32;20089;-69
2021/10/29 11:05:19;;;;;;;9.63;2.90;;;13.80;99.90;;;;;;4415684;32;20065;-68
2021/10/29 11:10:17;;;;;;;2.78;1.95;;;14.30;99.90;;;;;;4433307;32;20070;-69
2021/10/29 11:12:46;;;;;;;1.77;1.17;;;14.70;99.90;;;;;;4432568;32;20395;-69
2021/10/29 11:15:17;;;;;;;3.30;1.25;;;14.90;99.90;;;;;;4436559;32;20060;-69
2021/10/29 11:17:47;;;;;;;2.03;1.30;;;15.10;99.90;;;;;;4426426;32;20092;-69
2021/10/29 11:20:34;;;;;;;5.15;0.93;;;15.40;99.90;;;;;;4433695;32;20073;-69
2021/10/29 11:23:08;;;;;;;3.80;1.05;;;15.70;99.90;;;;;;4409296;32;20085;-69
2021/10/29 11:26:02;;;;;;;1.95;1.12;;;15.90;99.90;;;;;;4424109;32;20077;-70
2021/10/29 11:28:39;;;;;;;3.97;1.27;;;16.30;99.90;;;;;;4433166;32;20073;-70
2021/10/29 11:31:07;;;;;;;2.30;1.00;;;16.50;99.90;;;;;;4430396;32;20172;-69
2021/10/29 11:33:37;;;;;;;2.28;1.05;;;16.70;99.90;;;;;;4429555;32;20541;-68
2021/10/29 11:36:07;;;;;;;1.10;1.00;;;17.00;99.90;;;;;;4429972;32;20093;-69
2021/10/29 11:38:35;;;;;;;4.15;1.42;;;17.00;99.90;;;;;;4433324;32;20097;-69
2021/10/29 11:41:03;;;;;;;1.90;1.37;;;17.40;99.90;;;;;;4426459;32;20088;-69
2021/10/29 11:43:31;;;;;;;0.80;0.80;;;17.50;99.90;;;;;;4415430;32;20164;-69
2021/10/29 11:45:59;;;;;;;0.77;0.70;;;17.60;99.90;;;;;;4420779;32;20073;-69
2021/10/29 11:48:25;;;;;;;2.20;1.08;;;17.70;99.90;;;;;;4423203;32;20455;-69
2021/10/29 11:51:11;;;;;;;0.68;0.68;;;17.70;99.90;;;;;;4408560;32;20088;-68
2021/10/29 11:53:46;;;;;;;3.22;1.02;;;17.70;99.90;;;;;;4425408;32;20166;-69
2021/10/29 11:56:25;;;;;;;1.10;0.95;;;17.50;99.90;;;;;;4430628;32;20101;-68
2021/10/29 12:07:23;;;;;;;1.10;0.70;;;19.10;99.30;;;;;;4421705;32;20081;-68
2021/10/29 12:09:53;;;;;;;0.70;0.70;;;19.40;98.30;;;;;;4429581;32;20109;-68
2021/10/29 12:12:22;;;;;;;0.70;0.70;;;19.30;98.00;;;;;;4435814;32;20064;-70
2021/10/29 12:14:51;;;;;;;0.82;0.75;;;19.60;98.40;;;;;;4427196;32;20096;-69
2021/10/29 12:19:51;;;;;;;6.35;0.80;;;19.50;98.00;;;;;;4433750;32;20081;-69
2021/10/29 12:22:52;;;;;;;0.70;0.70;;;19.70;98.30;;;;;;4429442;32;20065;-69
2021/10/29 12:25:18;;;;;;;0.90;0.77;;;20.00;96.90;;;;;;4432610;32;20069;-69
2021/10/29 12:27:48;;;;;;;4.03;2.15;;;20.40;96.30;;;;;;4429197;32;20821;-69
2021/10/29 12:30:27;;;;;;;1.80;1.05;;;20.60;95.80;;;;;;4432779;32;20077;-69
2021/10/29 12:33:54;;;;;;;1.37;1.23;;;20.40;95.90;;;;;;4431579;32;20135;-69
2021/10/29 12:37:07;;;;;;;5.62;0.98;;;20.10;95.60;;;;;;4428964;32;20119;-70
2021/10/29 12:52:09;;;;;;;1.10;0.82;;;19.00;97.40;;;;;;4431561;32;20065;-70
2021/10/29 12:58:58;;;;;;;0.98;0.93;;;18.30;99.00;;;;;;4434744;32;20077;-69
2021/10/29 13:01:54;;;;;;;0.68;0.68;;;18.00;99.50;;;;;;4435904;32;20072;-69
2021/10/29 13:03:38;;;;;;;1.65;0.98;;;17.80;99.70;;;;;;4433216;32;20561;-69
2021/10/29 13:06:06;;;;;;;3.65;1.62;;;17.80;99.60;;;;;;4441960;32;20065;-69
2021/10/29 13:08:36;;;;;;;0.60;0.60;;;17.50;99.90;;;;;;4438569;32;20416;-70
2021/10/29 13:11:02;;;;;;;1.75;1.35;;;17.30;99.90;;;;;;4438432;32;20073;-69
2021/10/29 13:13:35;;;;;;;1.45;1.20;;;17.20;99.90;;;;;;4440063;32;20135;-69
2021/10/29 13:16:04;;;;;;;1.00;0.95;;;17.30;99.90;;;;;;4434085;32;20097;-69
2021/10/29 13:18:44;;;;;;;0.85;0.85;;;17.30;99.90;;;;;;4436770;32;20069;-69
2021/10/29 13:22:25;;;;;;;1.25;1.15;;;17.20;99.90;;;;;;4439571;32;20085;-69
2021/10/29 13:24:14;;;;;;;3.92;1.65;;;17.20;99.90;;;;;;4423147;32;20405;-70
2021/10/29 13:27:05;;;;;;;1.75;1.08;;;17.00;99.90;;;;;;4430449;32;20400;-69
2021/10/29 13:34:47;;;;;;;1.12;0.85;;;16.70;99.90;;;;;;4424385;32;20092;-69
2021/10/29 13:50:48;;;;;;;3.55;1.70;;;16.20;99.90;;;;;;4427848;32;20551;-69
2021/10/29 13:57:30;;;;;;;6.53;1.55;;;15.90;99.90;;;;;;4436886;32;20112;-69
2021/10/29 13:59:09;;;;;;;1.37;1.20;;;15.80;99.90;;;;;;4432095;32;20136;-69
2021/10/29 14:02:49;;;;;;;2.40;1.40;;;15.90;99.90;;;;;;4429423;32;20582;-69
2021/10/29 14:28:33;;;;;;;0.98;0.85;;;15.80;99.90;;;;;;4425825;32;20107;-69
2021/10/29 14:29:16;;;;;;;3.42;1.75;;;15.60;99.90;;;;;;4431020;32;20128;-69
2021/10/29 14:32:02;;;;;;;3.08;1.15;;;15.70;99.90;;;;;;4434732;32;20720;-70
2021/10/29 14:34:35;;;;;;;1.15;1.05;;;15.70;99.90;;;;;;4414024;32;20073;-70
2021/10/29 14:37:13;;;;;;;0.68;0.68;;;16.00;99.90;;;;;;4442345;32;20144;-70
2021/10/29 14:39:49;;;;;;;1.75;0.82;;;15.90;99.90;;;;;;4442655;32;20110;-70
2021/10/29 14:42:49;;;;;;;1.10;1.00;;;15.90;99.90;;;;;;4441616;32;20088;-70
2021/10/29 14:47:42;;;;;;;0.82;0.82;;;15.60;99.90;;;;;;4444545;32;20568;-70
2021/10/29 14:51:25;;;;;;;1.50;1.00;;;15.40;99.90;;;;;;4443555;32;20074;-70
2021/10/29 14:53:18;;;;;;;1.48;1.00;;;15.30;99.90;;;;;;4428007;32;20141;-70
2021/10/29 15:01:03;;;;;;;3.60;1.02;;;15.10;99.90;;;;;;4431142;32;20195;-70
2021/10/29 15:01:51;;;;;;;1.33;1.05;;;15.10;99.90;;;;;;4431802;32;20061;-70
2021/10/29 15:04:08;;;;;;;0.70;0.70;;;15.00;99.90;;;;;;4432369;32;20081;-70
2021/10/29 15:06:54;;;;;;;6.40;1.42;;;15.00;99.90;;;;;;4438906;32;20081;-70
2021/10/29 15:14:58;;;;;;;1.52;1.23;;;14.90;99.90;;;;;;4431658;32;20065;-70
2021/10/29 15:16:05;;;;;;;0.98;0.95;;;14.60;99.90;;;;;;4432034;32;20073;-70
2021/10/29 15:17:51;;;;;;;0.88;0.88;;;14.60;99.90;;;;;;4424531;32;20083;-70
2021/10/29 15:25:44;;;;;;;1.40;0.88;;;14.40;99.90;;;;;;4426909;32;20303;-69
2021/10/29 15:29:25;;;;;;;2.50;1.40;;;14.30;99.90;;;;;;4443011;32;20061;-69
2021/10/29 15:41:37;;;;;;;0.57;0.57;;;14.00;99.90;;;;;;4428535;32;20117;-70
2021/10/29 15:45:03;;;;;;;2.92;1.73;;;13.80;99.90;;;;;;4430756;32;20089;-70
2021/10/29 15:47:39;;;;;;;1.00;0.95;;;13.70;99.90;;;;;;4444191;32;20049;-70
2021/10/29 15:50:07;;;;;;;2.58;1.33;;;13.50;99.90;;;;;;4444439;32;20471;-70
2021/10/29 15:52:33;;;;;;;3.30;1.77;;;13.30;99.90;;;;;;4443072;32;20064;-70
2021/10/29 15:55:04;;;;;;;1.48;1.00;;;13.10;99.90;;;;;;4441962;32;20506;-70
2021/10/29 15:57:33;;;;;;;1.12;0.85;;;13.00;99.90;;;;;;4443474;32;20108;-70
2021/10/29 16:00:20;;;;;;;4.97;1.20;;;12.90;99.90;;;;;;4443672;32;20079;-70
2021/10/29 16:02:50;;;;;;;1.30;1.10;;;12.90;99.90;;;;;;4431469;32;20085;-70
2021/10/29 16:17:17;;;;;;;1.60;1.15;;;12.30;99.90;;;;;;4430639;32;20073;-70
2021/10/29 16:19:03;;;;;;;1.40;1.10;;;12.30;99.90;;;;;;4431074;32;20547;-70
2021/10/29 16:21:29;;;;;;;2.17;1.15;;;12.20;99.90;;;;;;4442949;32;20085;-69